Terminal Aerodrome Forecast
Issued by NWS Quad Cities IA IL

Home | Current Version | Previous Version | Text Only | Print | Product List | Glossary On
Versions: 1 2 3 4 5 6 7 8 9 10 11 12 13 14
000
FTUS43 KDVN 101700
TAFDBQ
TAF
KDBQ 101727Z 1018/1118 20011KT P6SM SCT040
     FM110500 17006KT P6SM SCT120
     FM111100 16008KT P6SM BKN100
     FM111600 17013KT P6SM SCT030 OVC080=

USA.gov is the U.S. government's official web portal to all federal, state and local government web resources and services.